Time,TemperatureF,DewpointF,PressureIn,WindDirection,WindDirectionDegrees,WindSpeedMPH,WindSpeedGustMPH,Humidity,HourlyPrecipIn,Conditions,Clouds,dailyrainin,SoftwareType,DateUTC
2013-01-15 00:00:00,23.2,17.4,30.41,NE,53,1.0,9.0,78,0.00,,---,0.00,VWS V14.01,2013-01-15 05:00:00,
2013-01-15 00:01:00,23.2,17.1,30.41,ENE,67,7.0,7.0,77,0.00,,---,0.00,VWS V14.01,2013-01-15 05:01:00,
2013-01-15 00:03:00,23.2,17.1,30.41,NE,49,1.0,9.0,77,0.00,,---,0.00,VWS V14.01,2013-01-15 05:03:00,
2013-01-15 00:08:00,23.2,17.1,30.41,NE,55,1.0,10.0,77,0.00,,---,0.00,VWS V14.01,2013-01-15 05:08:00,
2013-01-15 00:13:00,23.0,16.6,30.40,NE,56,2.0,10.0,76,0.00,,---,0.00,VWS V14.01,2013-01-15 05:13:00,
2013-01-15 00:18:00,23.0,16.9,30.41,ENE,61,1.0,10.0,77,0.00,,---,0.00,VWS V14.01,2013-01-15 05:18:00,
2013-01-15 00:23:00,23.0,16.9,30.40,NE,46,1.0,10.0,77,0.00,,---,0.00,VWS V14.01,2013-01-15 05:23:00,
2013-01-15 00:28:00,23.0,16.9,30.40,ENE,63,7.0,10.0,77,0.00,,---,0.00,VWS V14.01,2013-01-15 05:28:00,
2013-01-15 00:30:00,23.0,16.6,30.40,ENE,61,3.0,10.0,76,0.00,,---,0.00,VWS V14.01,2013-01-15 05:30:00,
2013-01-15 00:33:00,23.0,16.9,30.40,ENE,59,7.0,8.0,77,0.00,,---,0.00,VWS V14.01,2013-01-15 05:33:00,
2013-01-15 00:38:00,22.9,16.5,30.40,NNE,22,4.0,8.0,76,0.00,,---,0.00,VWS V14.01,2013-01-15 05:38:00,
2013-01-15 00:43:00,22.9,16.8,30.39,ENE,61,2.0,11.0,77,0.00,,---,0.00,VWS V14.01,2013-01-15 05:43:00,
2013-01-15 00:48:00,22.7,16.6,30.40,NNE,20,2.0,11.0,77,0.00,,---,0.00,VWS V14.01,2013-01-15 05:48:00,
2013-01-15 00:53:00,22.7,16.6,30.40,ENE,71,0.0,11.0,77,0.00,,---,0.00,VWS V14.01,2013-01-15 05:53:00,
2013-01-15 00:58:00,22.5,16.4,30.40,ENE,57,1.0,11.0,77,0.00,,---,0.00,VWS V14.01,2013-01-15 05:58:00,
2013-01-15 01:00:00,22.5,16.4,30.40,NNE,26,2.0,11.0,77,0.00,,---,0.00,VWS V14.01,2013-01-15 06:00:00,
2013-01-15 01:03:00,22.5,16.4,30.40,NNE,32,4.0,7.0,77,0.00,,---,0.00,VWS V14.01,2013-01-15 06:03:00,
2013-01-15 01:08:00,22.4,16.3,30.40,ENE,69,3.0,7.0,77,0.00,,---,0.00,VWS V14.01,2013-01-15 06:08:00,
2013-01-15 01:13:00,22.4,16.3,30.40,ENE,62,5.0,7.0,77,0.00,,---,0.00,VWS V14.01,2013-01-15 06:13:00,
2013-01-15 01:18:00,22.4,16.3,30.40,NE,37,5.0,8.0,77,0.00,,---,0.00,VWS V14.01,2013-01-15 06:18:00,
2013-01-15 01:23:00,22.2,16.4,30.40,ENE,62,2.0,8.0,78,0.00,,---,0.00,VWS V14.01,2013-01-15 06:23:00,
2013-01-15 01:28:00,22.2,16.4,30.40,NE,48,2.0,8.0,78,0.00,,---,0.00,VWS V14.01,2013-01-15 06:28:00,
2013-01-15 01:30:00,22.2,16.4,30.40,NNE,26,0.0,8.0,78,0.00,,---,0.00,VWS V14.01,2013-01-15 06:30:00,
2013-01-15 01:33:00,22.2,16.4,30.40,NNE,23,2.0,6.0,78,0.00,,---,0.00,VWS V14.01,2013-01-15 06:33:00,
2013-01-15 01:38:00,22.1,16.3,30.40,NE,50,0.0,6.0,78,0.00,,---,0.00,VWS V14.01,2013-01-15 06:38:00,
2013-01-15 01:43:00,22.1,16.3,30.40,NE,44,2.0,6.0,78,0.00,,---,0.00,VWS V14.01,2013-01-15 06:43:00,
2013-01-15 01:48:00,22.1,16.3,30.40,NNE,24,1.0,6.0,78,0.00,,---,0.00,VWS V14.01,2013-01-15 06:48:00,
2013-01-15 01:53:00,21.9,16.1,30.39,NE,50,2.0,6.0,78,0.00,,---,0.00,VWS V14.01,2013-01-15 06:53:00,
2013-01-15 01:58:00,21.9,16.1,30.40,NE,39,0.0,6.0,78,0.00,,---,0.00,VWS V14.01,2013-01-15 06:58:00,
2013-01-15 02:00:00,21.9,16.4,30.39,NNE,19,1.0,6.0,79,0.00,,---,0.00,VWS V14.01,2013-01-15 07:00:00,
2013-01-15 02:03:00,21.8,16.3,30.39,North,11,3.0,6.0,79,0.00,,---,0.00,VWS V14.01,2013-01-15 07:03:00,
2013-01-15 02:08:00,21.8,16.3,30.39,NNE,30,3.0,6.0,79,0.00,,---,0.00,VWS V14.01,2013-01-15 07:08:00,
2013-01-15 02:14:00,21.8,16.3,30.39,North,5,1.0,7.0,79,0.00,,---,0.00,VWS V14.01,2013-01-15 07:14:00,
2013-01-15 02:19:00,21.8,16.3,30.39,NNE,24,2.0,7.0,79,0.00,,---,0.00,VWS V14.01,2013-01-15 07:19:00,
2013-01-15 02:24:00,21.8,16.3,30.40,North,11,4.0,7.0,79,0.00,,---,0.00,VWS V14.01,2013-01-15 07:24:00,
2013-01-15 02:29:00,21.9,16.4,30.39,NNE,30,0.0,7.0,79,0.00,,---,0.00,VWS V14.01,2013-01-15 07:29:00,
2013-01-15 02:30:00,21.8,16.3,30.39,NNE,19,0.0,7.0,79,0.00,,---,0.00,VWS V14.01,2013-01-15 07:30:00,
2013-01-15 02:34:00,21.8,16.3,30.39,NNE,24,3.0,5.0,79,0.00,,---,0.00,VWS V14.01,2013-01-15 07:34:00,
2013-01-15 02:39:00,21.8,16.6,30.39,North,360,4.0,6.0,80,0.00,,---,0.00,VWS V14.01,2013-01-15 07:39:00,
2013-01-15 02:44:00,21.6,16.4,30.39,North,9,1.0,7.0,80,0.00,,---,0.00,VWS V14.01,2013-01-15 07:44:00,
2013-01-15 02:49:00,21.4,16.2,30.39,NNE,30,2.0,7.0,80,0.00,,---,0.00,VWS V14.01,2013-01-15 07:49:00,
2013-01-15 02:54:00,21.3,16.4,30.39,North,5,3.0,7.0,81,0.00,,---,0.00,VWS V14.01,2013-01-15 07:54:00,
2013-01-15 02:59:00,21.4,16.5,30.39,North,11,4.0,8.0,81,0.00,,---,0.00,VWS V14.01,2013-01-15 07:59:00,
2013-01-15 03:00:00,21.4,16.5,30.39,North,0,3.0,9.0,81,0.00,,---,0.00,VWS V14.01,2013-01-15 08:00:00,
2013-01-15 03:30:00,21.4,16.5,30.39,NNE,22,2.0,9.0,81,0.00,,---,0.00,VWS V14.01,2013-01-15 08:30:00,
2013-01-15 04:00:00,21.4,16.5,30.39,North,0,2.0,8.0,81,0.00,,---,0.00,VWS V14.01,2013-01-15 09:00:00,
2013-01-15 04:30:00,21.6,17.0,30.39,NNE,22,1.0,9.0,82,0.00,,---,0.00,VWS V14.01,2013-01-15 09:30:00,
2013-01-15 05:00:00,21.8,16.9,30.40,NNE,22,2.0,11.0,81,0.00,,---,0.00,VWS V14.01,2013-01-15 10:00:00,
2013-01-15 05:30:00,21.4,16.5,30.39,NNE,22,3.0,11.0,81,0.00,,---,0.00,VWS V14.01,2013-01-15 10:30:00,
2013-01-15 06:00:00,21.0,16.1,30.39,NNE,22,2.0,9.0,81,0.00,,---,0.00,VWS V14.01,2013-01-15 11:00:00,
2013-01-15 06:30:00,21.0,16.4,30.38,North,0,3.0,10.0,82,0.00,,---,0.00,VWS V14.01,2013-01-15 11:30:00,
2013-01-15 07:00:00,21.1,16.5,30.38,NNE,22,2.0,10.0,82,0.00,,---,0.00,VWS V14.01,2013-01-15 12:00:00,
2013-01-15 07:30:00,21.1,16.2,30.39,NE,45,3.0,12.0,81,0.00,,---,0.00,VWS V14.01,2013-01-15 12:30:00,
2013-01-15 08:00:00,21.0,16.1,30.39,NNE,22,2.0,12.0,81,0.00,,---,0.00,VWS V14.01,2013-01-15 13:00:00,
2013-01-15 08:30:00,21.4,16.5,30.38,ENE,68,4.0,11.0,81,0.00,,---,0.00,VWS V14.01,2013-01-15 13:30:00,
2013-01-15 09:00:00,22.2,17.3,30.38,ENE,68,6.0,14.0,81,0.00,,---,0.00,VWS V14.01,2013-01-15 14:00:00,
2013-01-15 09:30:00,23.8,18.0,30.38,ENE,68,7.0,15.0,78,0.00,,---,0.00,VWS V14.01,2013-01-15 14:30:00,
2013-01-15 10:00:00,24.8,17.7,30.40,ENE,68,7.0,15.0,74,0.00,,---,0.00,VWS V14.01,2013-01-15 15:00:00,
2013-01-15 10:30:00,25.4,17.3,30.39,ENE,68,7.0,14.0,71,0.00,,---,0.00,VWS V14.01,2013-01-15 15:30:00,
2013-01-15 11:00:00,26.3,17.5,30.38,ENE,68,8.0,15.0,69,0.00,,---,0.00,VWS V14.01,2013-01-15 16:00:00,
2013-01-15 11:30:00,27.0,17.9,30.35,ENE,68,8.0,16.0,68,0.00,,---,0.00,VWS V14.01,2013-01-15 16:30:00,
2013-01-15 12:00:00,28.1,18.6,30.33,ENE,68,7.0,17.0,67,0.00,,---,0.00,VWS V14.01,2013-01-15 17:00:00,
2013-01-15 12:30:00,28.4,18.5,30.32,ENE,68,8.0,15.0,66,0.00,,---,0.00,VWS V14.01,2013-01-15 17:30:00,
2013-01-15 13:00:00,29.4,18.7,30.30,ENE,68,7.0,15.0,64,0.00,,---,0.00,VWS V14.01,2013-01-15 18:00:00,
2013-01-15 13:30:00,29.7,19.0,30.27,ENE,68,7.0,15.0,64,0.00,,---,0.00,VWS V14.01,2013-01-15 18:30:00,
2013-01-15 14:00:00,30.4,19.7,30.25,ENE,68,8.0,16.0,64,0.00,,---,0.00,VWS V14.01,2013-01-15 19:00:00,
2013-01-15 14:30:00,30.3,19.6,30.27,ENE,68,7.0,15.0,64,0.00,,---,0.00,VWS V14.01,2013-01-15 19:30:00,
2013-01-15 15:00:00,30.3,20.0,30.25,ENE,68,5.0,11.0,65,0.00,,---,0.00,VWS V14.01,2013-01-15 20:00:00,
2013-01-15 15:30:00,30.3,20.3,30.27,ENE,68,3.0,11.0,66,0.00,,---,0.00,VWS V14.01,2013-01-15 20:30:00,
2013-01-15 16:00:00,30.3,20.7,30.28,ENE,68,4.0,13.0,67,0.00,,---,0.00,VWS V14.01,2013-01-15 21:00:00,
2013-01-15 16:30:00,30.3,20.7,30.26,ENE,68,3.0,9.0,67,0.00,,---,0.00,VWS V14.01,2013-01-15 21:30:00,
2013-01-15 17:00:00,30.4,21.5,30.24,ENE,68,5.0,11.0,69,0.00,,---,0.00,VWS V14.01,2013-01-15 22:00:00,
2013-01-15 17:30:00,30.4,21.5,30.24,ENE,68,4.0,10.0,69,0.00,,---,0.00,VWS V14.01,2013-01-15 22:30:00,
2013-01-15 18:00:00,30.4,21.5,30.23,ENE,68,4.0,11.0,69,0.00,,---,0.00,VWS V14.01,2013-01-15 23:00:00,
2013-01-15 18:30:00,30.4,21.5,30.21,ENE,68,4.0,11.0,69,0.00,,---,0.00,VWS V14.01,2013-01-15 23:30:00,
2013-01-15 19:00:00,30.3,21.7,30.20,ENE,68,4.0,10.0,70,0.00,,---,0.00,VWS V14.01,2013-01-16 00:00:00,
2013-01-15 19:30:00,30.3,22.0,30.19,ENE,68,3.0,10.0,71,0.00,,---,0.00,VWS V14.01,2013-01-16 00:30:00,
2013-01-15 20:00:00,30.3,22.7,30.19,ENE,68,1.0,9.0,73,0.00,,---,0.00,VWS V14.01,2013-01-16 01:00:00,
2013-01-15 20:30:00,30.1,22.8,30.18,ENE,68,2.0,11.0,74,0.00,,---,0.00,VWS V14.01,2013-01-16 01:30:00,
2013-01-15 21:00:00,30.1,23.1,30.17,ENE,68,4.0,11.0,75,0.00,,---,0.00,VWS V14.01,2013-01-16 02:00:00,
2013-01-15 21:30:00,30.0,23.0,30.16,ENE,68,3.0,11.0,75,0.00,,---,0.00,VWS V14.01,2013-01-16 02:30:00,
2013-01-15 22:00:00,30.0,23.0,30.15,ENE,68,1.0,7.0,75,0.00,,---,0.00,VWS V14.01,2013-01-16 03:00:00,
2013-01-15 22:30:00,29.8,22.9,30.15,NNE,22,2.0,9.0,75,0.00,,---,0.00,VWS V14.01,2013-01-16 03:30:00,
2013-01-15 23:00:00,29.7,23.1,30.12,ENE,68,2.0,10.0,76,0.00,,---,0.00,VWS V14.01,2013-01-16 04:00:00,
2013-01-15 23:30:00,29.7,23.4,30.12,ENE,68,3.0,12.0,77,0.00,,---,0.00,VWS V14.01,2013-01-16 04:30:00,